Time;durP1;ratioP1;P1;durP2;ratioP2;P2;SDS_P1;SDS_P2;PMS_P1;PMS_P2;Temp;Humidity;BMP_temperature;BMP_pressure;BME280_temperature;BME280_humidity;BME280_pressure;Samples;Min_cycle;Max_cycle;Signal;HPM_P1;HPM_P2
2022/07/30 00:00:10;;;;;;;14.13;5.78;;;20.80;90.50;;;;;;5033056;28;20075;-74
2022/07/30 00:02:36;;;;;;;11.82;5.85;;;20.70;91.20;;;;;;5032835;28;20037;-74
2022/07/30 00:05:02;;;;;;;9.55;4.90;;;20.70;91.40;;;;;;5034553;28;20021;-74
2022/07/30 00:07:28;;;;;;;10.88;4.68;;;20.60;91.60;;;;;;5036882;28;20068;-74
2022/07/30 00:09:54;;;;;;;7.32;4.57;;;20.60;91.70;;;;;;5037146;28;20429;-74
2022/07/30 00:12:19;;;;;;;6.65;3.47;;;20.70;91.70;;;;;;5036998;28;20033;-74
2022/07/30 00:14:45;;;;;;;8.75;3.28;;;20.80;91.50;;;;;;5037012;28;20053;-74
2022/07/30 00:17:10;;;;;;;9.07;4.00;;;20.90;91.60;;;;;;5036883;28;20031;-74
2022/07/30 00:19:36;;;;;;;9.70;4.20;;;20.90;91.30;;;;;;5037129;28;20033;-74
2022/07/30 00:22:02;;;;;;;10.98;5.55;;;20.90;91.60;;;;;;5036450;28;20030;-74
2022/07/30 00:24:27;;;;;;;10.88;5.32;;;20.90;91.70;;;;;;5036954;28;20022;-74
2022/07/30 00:26:53;;;;;;;11.02;6.22;;;20.90;91.90;;;;;;5036982;28;20038;-74
2022/07/30 00:29:19;;;;;;;11.05;4.93;;;20.70;92.30;;;;;;5036977;28;20155;-74
2022/07/30 00:31:44;;;;;;;12.93;5.03;;;20.60;92.50;;;;;;5036692;28;20036;-75
2022/07/30 00:34:11;;;;;;;11.93;4.90;;;20.50;92.70;;;;;;5036645;28;20024;-75
2022/07/30 00:36:37;;;;;;;13.88;5.40;;;20.60;92.80;;;;;;5036489;28;20515;-75
2022/07/30 00:39:03;;;;;;;6.55;4.05;;;20.60;92.70;;;;;;5036782;28;20029;-75
2022/07/30 00:41:28;;;;;;;8.50;4.07;;;20.60;92.60;;;;;;5036440;28;20057;-75
2022/07/30 00:43:54;;;;;;;12.02;3.83;;;20.80;92.50;;;;;;5036599;28;20113;-75
2022/07/30 00:46:20;;;;;;;11.18;3.70;;;20.90;92.30;;;;;;5036252;28;20033;-75
2022/07/30 00:48:45;;;;;;;8.98;3.70;;;20.90;92.50;;;;;;5036478;28;20041;-75
2022/07/30 00:51:11;;;;;;;10.15;4.13;;;21.00;92.00;;;;;;5036276;28;20370;-74
2022/07/30 00:53:38;;;;;;;13.40;4.10;;;21.00;92.00;;;;;;5036081;28;20018;-75
2022/07/30 00:56:04;;;;;;;8.52;4.18;;;21.00;92.20;;;;;;5036228;28;20030;-74
2022/07/30 00:58:30;;;;;;;7.00;3.25;;;21.00;92.20;;;;;;5036309;28;20100;-74
2022/07/30 01:00:55;;;;;;;7.43;3.53;;;20.90;92.20;;;;;;5036191;28;20507;-74
2022/07/30 01:03:21;;;;;;;13.27;4.25;;;20.90;92.20;;;;;;5036234;28;20473;-74
2022/07/30 01:05:47;;;;;;;9.43;4.78;;;21.00;92.20;;;;;;5035607;28;20221;-74
2022/07/30 01:08:13;;;;;;;8.15;3.67;;;21.00;92.40;;;;;;5035800;28;20034;-75
2022/07/30 01:10:38;;;;;;;5.80;3.90;;;20.90;92.40;;;;;;5036111;28;20025;-74
2022/07/30 01:13:06;;;;;;;7.55;3.00;;;20.90;92.40;;;;;;5035767;28;20029;-74
2022/07/30 01:15:32;;;;;;;7.80;3.45;;;20.90;92.30;;;;;;5035762;28;20469;-75
2022/07/30 01:18:02;;;;;;;9.65;4.00;;;20.90;92.10;;;;;;5035054;28;20112;-74
2022/07/30 01:20:42;;;;;;;13.05;5.03;;;20.90;92.20;;;;;;5035589;28;20022;-74
2022/07/30 01:23:20;;;;;;;8.63;4.45;;;20.90;92.40;;;;;;5035346;28;20515;-74
2022/07/30 01:25:59;;;;;;;7.20;4.18;;;20.90;92.40;;;;;;5035835;28;20071;-74
2022/07/30 01:28:29;;;;;;;10.73;4.32;;;20.90;92.40;;;;;;5035424;28;20029;-74
2022/07/30 01:30:56;;;;;;;10.77;5.20;;;20.80;92.50;;;;;;5035140;28;20061;-75
2022/07/30 01:33:24;;;;;;;9.88;5.30;;;20.70;92.70;;;;;;5035505;28;20053;-74
2022/07/30 01:35:51;;;;;;;7.70;3.67;;;20.60;92.80;;;;;;5035333;28;20026;-74
2022/07/30 01:38:23;;;;;;;7.22;3.75;;;20.60;92.90;;;;;;5035420;28;20402;-74
2022/07/30 01:40:50;;;;;;;9.80;4.47;;;20.60;92.80;;;;;;5035121;28;20473;-74
2022/07/30 01:43:18;;;;;;;13.88;5.25;;;20.60;92.90;;;;;;5035164;28;20036;-74
2022/07/30 01:45:47;;;;;;;7.85;5.10;;;20.60;93.00;;;;;;5035266;28;20037;-74
2022/07/30 01:48:15;;;;;;;11.55;6.50;;;20.50;93.10;;;;;;5035422;28;20033;-74
2022/07/30 01:50:44;;;;;;;7.25;5.18;;;20.30;93.30;;;;;;5035119;28;20467;-74
2022/07/30 01:53:17;;;;;;;9.23;4.40;;;20.30;93.40;;;;;;5035093;28;20037;-74
2022/07/30 01:55:44;;;;;;;6.93;4.05;;;20.40;93.40;;;;;;5034821;28;20029;-75
2022/07/30 01:58:11;;;;;;;7.45;4.20;;;20.40;93.30;;;;;;5034988;28;20484;-75
2022/07/30 02:00:40;;;;;;;6.13;4.13;;;20.50;93.20;;;;;;5035064;28;20053;-75
2022/07/30 02:03:07;;;;;;;9.38;4.22;;;20.60;93.00;;;;;;5034962;28;20026;-75
2022/07/30 02:05:35;;;;;;;8.00;4.00;;;20.70;93.10;;;;;;5034806;28;20468;-75
2022/07/30 02:08:03;;;;;;;6.72;3.38;;;20.70;92.70;;;;;;5034479;28;20037;-75
2022/07/30 02:10:34;;;;;;;8.88;4.85;;;20.80;92.60;;;;;;5034977;28;20028;-75
2022/07/30 02:13:03;;;;;;;12.25;5.30;;;20.80;92.40;;;;;;5034983;28;20030;-75
2022/07/30 02:15:36;;;;;;;11.13;5.05;;;20.90;92.40;;;;;;5034590;28;20480;-75
2022/07/30 02:18:27;;;;;;;8.70;4.10;;;20.80;92.50;;;;;;5034942;28;20040;-75
2022/07/30 02:21:03;;;;;;;13.23;5.38;;;20.90;92.50;;;;;;5014868;28;20041;-74
2022/07/30 02:23:33;;;;;;;12.18;4.38;;;20.90;92.40;;;;;;5034356;28;20050;-74
2022/07/30 02:26:00;;;;;;;6.25;4.30;;;20.90;92.40;;;;;;5034662;28;20087;-74
2022/07/30 02:28:27;;;;;;;9.30;5.40;;;20.90;92.30;;;;;;5033428;28;20048;-74
2022/07/30 02:30:56;;;;;;;10.10;5.38;;;20.90;92.30;;;;;;5034284;28;20528;-74
2022/07/30 02:33:26;;;;;;;9.77;5.57;;;20.90;92.30;;;;;;5034232;28;20473;-74
2022/07/30 02:35:53;;;;;;;9.13;5.82;;;20.90;92.40;;;;;;5034455;28;20056;-74
2022/07/30 02:38:20;;;;;;;13.68;6.15;;;20.80;92.60;;;;;;5034416;28;20022;-74
2022/07/30 02:40:46;;;;;;;11.95;5.55;;;20.70;93.00;;;;;;5033950;28;20025;-74
2022/07/30 02:43:15;;;;;;;8.27;5.38;;;20.60;92.80;;;;;;5034265;28;20052;-74
2022/07/30 02:45:42;;;;;;;10.27;6.03;;;20.60;92.90;;;;;;5033835;28;20041;-74
2022/07/30 02:48:10;;;;;;;8.70;4.80;;;20.60;93.00;;;;;;5034316;28;20029;-74
2022/07/30 02:50:38;;;;;;;9.45;5.40;;;20.50;93.20;;;;;;5033897;28;20028;-74
2022/07/30 02:53:08;;;;;;;10.40;5.97;;;20.40;93.20;;;;;;5033623;28;20499;-75
2022/07/30 02:55:34;;;;;;;10.60;6.05;;;20.40;93.30;;;;;;5033873;28;20044;-74
2022/07/30 02:58:02;;;;;;;7.00;5.40;;;20.40;93.40;;;;;;5033934;28;20028;-74
2022/07/30 03:00:29;;;;;;;12.90;6.90;;;20.40;93.50;;;;;;5033944;28;20033;-74
2022/07/30 03:02:56;;;;;;;9.73;6.47;;;20.40;93.60;;;;;;5033780;28;20029;-74
2022/07/30 03:05:22;;;;;;;11.57;6.50;;;20.30;93.90;;;;;;5033568;28;20516;-74
2022/07/30 03:07:48;;;;;;;7.88;5.00;;;20.20;94.00;;;;;;5033629;28;20069;-74
2022/07/30 03:10:14;;;;;;;11.93;7.53;;;20.20;94.10;;;;;;5033864;28;20056;-74
2022/07/30 03:12:43;;;;;;;8.07;6.10;;;20.20;94.20;;;;;;5033372;28;20502;-74
2022/07/30 03:15:09;;;;;;;10.10;6.88;;;20.10;94.30;;;;;;5033484;28;20033;-75
2022/07/30 03:17:43;;;;;;;7.93;6.03;;;20.00;94.50;;;;;;5033669;28;20028;-74
2022/07/30 03:20:11;;;;;;;8.70;6.95;;;19.90;94.60;;;;;;5033626;28;20037;-74
2022/07/30 03:22:42;;;;;;;9.77;8.13;;;20.00;94.60;;;;;;5032880;28;20041;-74
2022/07/30 03:25:11;;;;;;;11.32;8.02;;;20.00;94.80;;;;;;5033718;28;20042;-74
2022/07/30 03:27:38;;;;;;;9.27;6.38;;;19.90;94.80;;;;;;5033135;28;20493;-74
2022/07/30 03:30:05;;;;;;;9.00;7.22;;;19.90;95.00;;;;;;5033424;28;20040;-75
2022/07/30 03:32:33;;;;;;;9.55;6.82;;;19.90;94.80;;;;;;5033329;28;20064;-74
2022/07/30 03:34:59;;;;;;;11.27;8.15;;;19.80;95.20;;;;;;5033697;28;20156;-74
2022/07/30 03:37:26;;;;;;;11.57;6.95;;;19.80;95.20;;;;;;5033252;28;20465;-74
2022/07/30 03:39:54;;;;;;;8.15;7.18;;;19.70;95.10;;;;;;5032957;28;20159;-75
2022/07/30 03:42:20;;;;;;;8.30;6.22;;;19.70;95.40;;;;;;5033404;28;20029;-74
2022/07/30 03:44:47;;;;;;;9.98;6.90;;;19.70;95.20;;;;;;5033130;28;20036;-74
2022/07/30 03:47:14;;;;;;;7.65;6.65;;;19.70;95.20;;;;;;5033228;28;20041;-74
2022/07/30 03:49:40;;;;;;;6.70;5.60;;;19.70;95.30;;;;;;5033413;28;20022;-74
2022/07/30 03:52:07;;;;;;;7.95;6.10;;;19.70;95.30;;;;;;5033336;28;20036;-74
2022/07/30 03:54:33;;;;;;;7.85;6.65;;;19.70;95.30;;;;;;5033042;28;20049;-75
2022/07/30 03:57:00;;;;;;;11.38;8.50;;;19.80;95.60;;;;;;5033044;28;20080;-74
2022/07/30 03:59:27;;;;;;;9.13;8.10;;;19.80;95.30;;;;;;5033218;28;20053;-74
2022/07/30 04:01:52;;;;;;;11.63;6.05;;;19.70;95.30;;;;;;5032815;28;20519;-74
2022/07/30 04:04:18;;;;;;;9.80;6.88;;;19.70;95.30;;;;;;5033041;28;20108;-74
2022/07/30 04:06:44;;;;;;;9.10;6.40;;;19.70;95.30;;;;;;5032900;28;20172;-75
2022/07/30 04:09:11;;;;;;;10.85;6.50;;;19.70;95.30;;;;;;5032492;28;20045;-74
2022/07/30 04:11:37;;;;;;;9.30;5.55;;;19.70;95.10;;;;;;5033114;28;20030;-74
2022/07/30 04:14:03;;;;;;;7.32;5.55;;;19.80;95.20;;;;;;5033036;28;20091;-74
2022/07/30 04:16:56;;;;;;;9.57;6.75;;;19.80;95.00;;;;;;5033150;28;20477;-74
2022/07/30 04:19:43;;;;;;;9.05;5.50;;;19.80;95.10;;;;;;5033117;28;20041;-75
2022/07/30 04:22:10;;;;;;;9.90;5.25;;;19.80;95.00;;;;;;5032578;28;20045;-75
2022/07/30 04:24:38;;;;;;;5.57;3.38;;;19.90;94.90;;;;;;5032876;28;20029;-75
2022/07/30 04:27:04;;;;;;;11.65;4.57;;;19.90;94.80;;;;;;5032915;28;20043;-74
2022/07/30 04:29:30;;;;;;;9.38;4.32;;;20.00;94.60;;;;;;5032741;28;20440;-74
2022/07/30 04:31:56;;;;;;;9.43;4.75;;;20.10;94.50;;;;;;5032687;28;20055;-74
2022/07/30 04:34:22;;;;;;;8.20;4.68;;;20.10;94.40;;;;;;5032904;28;20076;-74
2022/07/30 04:36:47;;;;;;;11.00;4.82;;;20.20;94.20;;;;;;5032841;28;20017;-75
2022/07/30 04:39:13;;;;;;;18.25;5.70;;;20.20;94.20;;;;;;5032713;28;20434;-74
2022/07/30 04:41:39;;;;;;;8.23;5.70;;;20.20;94.20;;;;;;5032785;28;20052;-74
2022/07/30 04:44:05;;;;;;;9.23;5.10;;;20.20;94.30;;;;;;5032746;28;20017;-74
2022/07/30 04:46:31;;;;;;;11.57;5.55;;;20.20;94.30;;;;;;5032621;28;20120;-74
2022/07/30 04:48:56;;;;;;;6.47;4.97;;;20.20;94.20;;;;;;5032976;28;20026;-75
2022/07/30 04:51:27;;;;;;;14.75;6.53;;;20.20;94.20;;;;;;5032878;28;20029;-74
2022/07/30 04:53:54;;;;;;;8.57;4.82;;;20.10;94.30;;;;;;5035949;28;20033;-75
2022/07/30 04:56:21;;;;;;;7.10;4.85;;;20.10;94.30;;;;;;5036249;28;20386;-74
2022/07/30 04:58:47;;;;;;;12.63;5.45;;;20.10;94.40;;;;;;5035911;28;20465;-75
2022/07/30 05:01:22;;;;;;;8.32;5.15;;;20.00;94.40;;;;;;5035783;28;20029;-75
2022/07/30 05:03:50;;;;;;;7.88;4.20;;;20.10;94.50;;;;;;5036079;28;20043;-75
2022/07/30 05:06:16;;;;;;;6.50;4.43;;;20.10;94.50;;;;;;5035463;28;20095;-75
2022/07/30 05:08:43;;;;;;;10.85;4.47;;;20.10;94.50;;;;;;5035768;28;20068;-75
2022/07/30 05:11:12;;;;;;;7.07;4.70;;;20.10;94.40;;;;;;5035999;28;20026;-75
2022/07/30 05:13:43;;;;;;;12.35;5.30;;;20.20;94.40;;;;;;5035543;28;20024;-75
2022/07/30 05:16:10;;;;;;;8.07;4.50;;;20.10;94.30;;;;;;5035706;28;20025;-75
2022/07/30 05:18:36;;;;;;;9.15;4.93;;;20.10;94.40;;;;;;5035428;28;20104;-75
2022/07/30 05:21:02;;;;;;;7.65;4.70;;;20.10;94.40;;;;;;5035819;28;20420;-75
2022/07/30 05:23:28;;;;;;;9.98;4.20;;;20.10;94.40;;;;;;5035222;28;20523;-75
2022/07/30 05:25:53;;;;;;;10.10;4.90;;;20.10;94.40;;;;;;5035576;28;20181;-75
2022/07/30 05:28:19;;;;;;;10.32;4.35;;;20.10;94.40;;;;;;5035228;28;20038;-75
2022/07/30 05:30:45;;;;;;;7.97;5.10;;;20.10;94.40;;;;;;5034982;28;20030;-75
2022/07/30 05:33:10;;;;;;;11.32;4.97;;;20.10;94.30;;;;;;5035563;28;20033;-75
2022/07/30 05:35:36;;;;;;;7.43;4.18;;;20.10;94.30;;;;;;5035390;28;20546;-75
2022/07/30 05:38:01;;;;;;;11.05;4.40;;;20.00;94.40;;;;;;5035056;28;20033;-75
2022/07/30 05:40:27;;;;;;;9.00;4.15;;;20.00;94.30;;;;;;5035266;28;20152;-75
2022/07/30 05:42:53;;;;;;;11.52;5.03;;;20.00;94.40;;;;;;5035579;28;20388;-75
2022/07/30 05:45:18;;;;;;;9.43;4.38;;;20.00;94.40;;;;;;5035521;28;20029;-75
2022/07/30 05:47:44;;;;;;;6.20;4.15;;;19.90;94.50;;;;;;5035100;28;20484;-75
2022/07/30 05:50:11;;;;;;;8.48;4.03;;;19.80;94.50;;;;;;5035189;28;20025;-75
2022/07/30 05:52:37;;;;;;;7.80;4.72;;;19.80;94.50;;;;;;5035068;28;20021;-75
2022/07/30 05:55:02;;;;;;;6.45;3.80;;;19.80;94.40;;;;;;5035187;28;20033;-75
2022/07/30 05:57:28;;;;;;;10.75;5.00;;;19.80;94.50;;;;;;5035062;28;20068;-75
2022/07/30 05:59:54;;;;;;;12.40;4.50;;;19.80;94.60;;;;;;5035126;28;20029;-75
2022/07/30 06:02:19;;;;;;;5.85;3.90;;;19.80;94.60;;;;;;5035118;28;20018;-75
2022/07/30 06:04:45;;;;;;;9.75;4.40;;;19.80;94.60;;;;;;5035201;28;20064;-75
2022/07/30 06:07:10;;;;;;;12.27;4.43;;;19.80;94.70;;;;;;5034599;28;20033;-75
2022/07/30 06:09:36;;;;;;;9.27;4.50;;;19.80;94.70;;;;;;5034779;28;20014;-75
2022/07/30 06:12:02;;;;;;;13.20;4.70;;;19.80;94.70;;;;;;5034728;28;20056;-75
2022/07/30 06:14:27;;;;;;;6.72;2.85;;;19.80;94.80;;;;;;5034880;28;20067;-75
2022/07/30 06:16:53;;;;;;;7.82;3.95;;;19.80;94.80;;;;;;5034880;28;20029;-75
2022/07/30 06:19:19;;;;;;;7.43;3.60;;;19.90;94.90;;;;;;5034836;28;20435;-75
2022/07/30 06:21:44;;;;;;;7.65;3.08;;;20.00;94.70;;;;;;5034432;28;20021;-75
2022/07/30 06:24:10;;;;;;;9.25;3.85;;;20.10;94.70;;;;;;5034488;28;20028;-75
2022/07/30 06:26:35;;;;;;;6.80;3.10;;;20.20;94.40;;;;;;5034255;28;20064;-75
2022/07/30 06:29:03;;;;;;;8.50;3.35;;;20.30;94.20;;;;;;5034705;28;20373;-75
2022/07/30 06:31:29;;;;;;;9.23;3.13;;;20.40;94.00;;;;;;5034609;28;20029;-75
2022/07/30 06:33:54;;;;;;;8.15;3.47;;;20.40;93.90;;;;;;5034524;28;20029;-75
2022/07/30 06:36:20;;;;;;;9.95;3.10;;;20.50;93.60;;;;;;5034606;28;20021;-75
2022/07/30 06:38:45;;;;;;;7.60;2.90;;;20.50;93.30;;;;;;5034272;28;20028;-75
2022/07/30 06:41:11;;;;;;;10.05;3.40;;;20.50;93.30;;;;;;5034201;28;20540;-75
2022/07/30 06:43:37;;;;;;;11.35;3.25;;;20.50;93.30;;;;;;5034004;28;20154;-75
2022/07/30 06:46:02;;;;;;;7.60;2.92;;;20.40;93.30;;;;;;5034012;28;20034;-75
2022/07/30 06:48:30;;;;;;;9.68;3.22;;;20.40;93.10;;;;;;5034324;28;20056;-75
2022/07/30 06:50:56;;;;;;;8.10;3.05;;;20.40;93.10;;;;;;5033876;28;20090;-75
2022/07/30 06:53:22;;;;;;;9.68;2.60;;;20.40;93.00;;;;;;5033874;28;20021;-75
2022/07/30 06:55:49;;;;;;;9.85;3.28;;;20.40;93.10;;;;;;5034123;28;20038;-74
2022/07/30 06:58:15;;;;;;;5.22;2.05;;;20.40;93.10;;;;;;5034018;28;20029;-74
2022/07/30 07:00:43;;;;;;;7.35;1.83;;;20.50;93.10;;;;;;5034064;28;20496;-74
2022/07/30 07:03:09;;;;;;;7.15;2.42;;;20.70;93.00;;;;;;5033712;28;20029;-75
2022/07/30 07:05:35;;;;;;;4.70;1.92;;;20.80;92.70;;;;;;5033679;28;20362;-75
2022/07/30 07:08:00;;;;;;;8.00;2.35;;;20.80;92.40;;;;;;5034011;28;20036;-74
2022/07/30 07:10:26;;;;;;;7.03;2.15;;;20.90;92.20;;;;;;5033515;28;20455;-74
2022/07/30 07:12:52;;;;;;;5.60;2.05;;;20.90;92.10;;;;;;5033722;28;20238;-74
2022/07/30 07:15:18;;;;;;;6.63;2.30;;;20.90;92.20;;;;;;5033227;28;20473;-75
2022/07/30 07:17:43;;;;;;;7.38;2.47;;;20.90;92.00;;;;;;5033891;28;20063;-75
2022/07/30 07:20:09;;;;;;;6.88;2.15;;;20.90;91.50;;;;;;5033527;28;20037;-75
2022/07/30 07:22:35;;;;;;;5.20;2.00;;;20.90;91.50;;;;;;5033423;28;20124;-75
2022/07/30 07:25:00;;;;;;;5.07;1.77;;;21.00;91.30;;;;;;5033441;28;20151;-75
2022/07/30 07:27:26;;;;;;;6.60;2.20;;;21.00;91.30;;;;;;5033583;28;20088;-74
2022/07/30 07:29:52;;;;;;;8.95;2.45;;;21.00;91.00;;;;;;5033589;28;20033;-74
2022/07/30 07:32:17;;;;;;;6.53;2.22;;;21.00;91.10;;;;;;5033162;28;20029;-75
2022/07/30 07:34:43;;;;;;;7.03;2.22;;;21.10;91.20;;;;;;5033648;28;20033;-75
2022/07/30 07:37:08;;;;;;;11.35;2.97;;;21.20;90.90;;;;;;5033418;28;20489;-75
2022/07/30 07:39:34;;;;;;;11.68;2.38;;;21.30;90.80;;;;;;5033126;28;20029;-75
2022/07/30 07:41:59;;;;;;;4.18;2.20;;;21.40;90.70;;;;;;5033515;28;20105;-75
2022/07/30 07:44:25;;;;;;;7.88;2.20;;;21.40;90.20;;;;;;5033159;28;20026;-75
2022/07/30 07:46:51;;;;;;;6.72;1.90;;;21.50;90.10;;;;;;5033403;28;20065;-75
2022/07/30 07:49:16;;;;;;;5.35;1.90;;;21.40;89.50;;;;;;5033403;28;20022;-75
2022/07/30 07:51:44;;;;;;;11.10;1.88;;;21.30;89.30;;;;;;5033398;28;20053;-75
2022/07/30 07:54:10;;;;;;;6.32;1.70;;;21.20;89.80;;;;;;5032775;28;20035;-75
2022/07/30 07:56:35;;;;;;;5.75;1.50;;;21.20;90.00;;;;;;5033067;28;20419;-75
2022/07/30 07:59:01;;;;;;;6.32;1.60;;;21.30;88.10;;;;;;5033400;28;20026;-75
2022/07/30 08:01:27;;;;;;;5.72;1.30;;;21.40;87.00;;;;;;5033259;28;20428;-75
2022/07/30 08:03:52;;;;;;;7.25;1.33;;;21.40;87.10;;;;;;5032852;28;20794;-75
2022/07/30 08:06:18;;;;;;;6.47;1.58;;;21.50;86.40;;;;;;5033166;28;20033;-75
2022/07/30 08:08:44;;;;;;;6.75;1.98;;;21.60;85.80;;;;;;5032776;28;20028;-75
2022/07/30 08:11:10;;;;;;;8.25;1.90;;;21.70;85.90;;;;;;5033176;28;20033;-75
2022/07/30 08:13:35;;;;;;;6.30;1.50;;;21.90;86.40;;;;;;5032870;28;20028;-75
2022/07/30 08:16:01;;;;;;;6.35;1.77;;;22.00;84.60;;;;;;5032771;28;20029;-75
2022/07/30 08:18:27;;;;;;;4.38;1.05;;;22.20;83.70;;;;;;5032900;28;20477;-75
2022/07/30 08:20:53;;;;;;;6.82;1.65;;;22.30;82.70;;;;;;5033135;28;20033;-75
2022/07/30 08:23:21;;;;;;;5.35;1.35;;;22.40;82.10;;;;;;5032840;28;20623;-75
2022/07/30 08:25:47;;;;;;;7.75;1.83;;;22.50;81.20;;;;;;5032743;28;20103;-75
2022/07/30 08:28:12;;;;;;;7.75;2.10;;;22.50;81.00;;;;;;5036167;28;20033;-75
2022/07/30 08:30:38;;;;;;;9.88;2.25;;;22.60;81.10;;;;;;5036779;28;20099;-75
2022/07/30 08:33:04;;;;;;;3.90;1.60;;;22.60;81.80;;;;;;5036909;28;20052;-75
2022/07/30 08:35:29;;;;;;;4.80;1.25;;;22.60;81.00;;;;;;5036948;28;20044;-75
2022/07/30 08:37:55;;;;;;;5.05;1.70;;;22.60;80.20;;;;;;5036533;28;20026;-75
2022/07/30 08:40:24;;;;;;;6.88;1.85;;;22.80;80.30;;;;;;5036539;28;20444;-75
2022/07/30 08:42:50;;;;;;;2.88;1.02;;;22.80;79.20;;;;;;5036822;28;20029;-75
2022/07/30 08:45:16;;;;;;;4.38;1.00;;;22.90;77.90;;;;;;5036635;28;20079;-75
2022/07/30 08:47:45;;;;;;;6.47;1.35;;;23.00;76.10;;;;;;5036427;28;20037;-75
2022/07/30 08:50:11;;;;;;;4.13;1.33;;;22.90;76.00;;;;;;5036123;28;20473;-75
2022/07/30 08:52:37;;;;;;;3.20;1.02;;;23.00;76.70;;;;;;5036166;28;20036;-75
2022/07/30 08:55:07;;;;;;;4.18;1.02;;;23.10;76.40;;;;;;5036392;28;20033;-75
2022/07/30 08:57:36;;;;;;;8.00;1.58;;;23.20;76.00;;;;;;5036027;28;20560;-75
2022/07/30 09:00:05;;;;;;;7.55;1.42;;;23.40;75.30;;;;;;5036475;28;20045;-75
2022/07/30 09:02:31;;;;;;;3.13;1.40;;;23.30;74.40;;;;;;5035732;28;20607;-75
2022/07/30 09:04:57;;;;;;;4.05;0.98;;;23.30;75.20;;;;;;5036184;28;20075;-75
2022/07/30 09:07:23;;;;;;;4.78;1.00;;;23.40;74.80;;;;;;5035823;28;20503;-75
2022/07/30 09:09:48;;;;;;;8.68;1.08;;;23.40;74.80;;;;;;5035791;28;20025;-75
2022/07/30 09:12:39;;;;;;;4.25;1.02;;;23.40;73.70;;;;;;5036245;28;20025;-75
2022/07/30 09:15:19;;;;;;;6.78;0.52;;;23.50;72.90;;;;;;5035849;28;20031;-75
2022/07/30 09:17:57;;;;;;;8.10;1.30;;;23.60;72.90;;;;;;5035986;28;20115;-75
2022/07/30 09:20:25;;;;;;;7.13;1.08;;;23.70;72.10;;;;;;5036093;28;20037;-75
2022/07/30 09:22:56;;;;;;;6.07;1.45;;;23.80;71.90;;;;;;5035521;28;20094;-75
2022/07/30 09:25:45;;;;;;;4.22;1.10;;;23.90;72.00;;;;;;5036116;28;20045;-75
2022/07/30 09:28:11;;;;;;;3.67;1.02;;;24.10;71.60;;;;;;5035827;28;20092;-75
2022/07/30 09:30:44;;;;;;;3.50;1.05;;;24.20;69.70;;;;;;5035523;28;20090;-75
2022/07/30 09:33:10;;;;;;;3.33;0.70;;;24.30;69.20;;;;;;5035684;28;20112;-75
2022/07/30 09:35:36;;;;;;;3.50;0.80;;;24.40;69.00;;;;;;5035264;28;20111;-75
2022/07/30 09:38:03;;;;;;;4.22;0.68;;;24.60;68.30;;;;;;5035057;28;20067;-75
2022/07/30 09:40:29;;;;;;;5.78;0.90;;;24.70;67.50;;;;;;5035284;28;20084;-75
2022/07/30 09:43:07;;;;;;;6.07;0.70;;;24.80;66.20;;;;;;5035240;28;20030;-75
2022/07/30 09:45:34;;;;;;;4.13;0.50;;;24.80;65.90;;;;;;5035555;28;20041;-76
2022/07/30 09:48:00;;;;;;;4.55;0.70;;;24.90;66.00;;;;;;5035389;28;20025;-76
2022/07/30 09:50:26;;;;;;;5.40;1.17;;;25.00;67.50;;;;;;5035199;28;20095;-75
2022/07/30 09:52:52;;;;;;;4.40;0.82;;;25.00;66.30;;;;;;5035107;28;20092;-75
2022/07/30 09:55:33;;;;;;;7.70;0.93;;;25.00;66.60;;;;;;5034787;28;20017;-76
2022/07/30 09:58:01;;;;;;;4.60;0.70;;;25.00;66.00;;;;;;5035350;28;20112;-75
2022/07/30 10:00:28;;;;;;;3.85;0.65;;;25.10;65.80;;;;;;5035295;28;20029;-76
2022/07/30 10:02:54;;;;;;;2.28;0.70;;;25.20;64.60;;;;;;5035327;28;20493;-75
2022/07/30 10:05:20;;;;;;;3.58;0.68;;;25.20;64.30;;;;;;5034687;28;20025;-76
2022/07/30 10:07:55;;;;;;;5.18;0.80;;;25.20;64.40;;;;;;5034727;28;20033;-76
2022/07/30 10:10:23;;;;;;;2.13;0.60;;;25.20;63.60;;;;;;5034947;28;20025;-75
2022/07/30 10:12:52;;;;;;;3.53;0.60;;;25.20;63.40;;;;;;5034921;28;20399;-76
2022/07/30 10:15:23;;;;;;;3.75;0.80;;;25.20;63.10;;;;;;5034527;28;20414;-75
2022/07/30 10:17:49;;;;;;;2.45;0.50;;;25.20;63.90;;;;;;5034668;28;20022;-75
2022/07/30 10:20:15;;;;;;;6.93;0.85;;;25.40;62.90;;;;;;5034701;28;20037;-75
2022/07/30 10:22:41;;;;;;;3.08;0.60;;;25.60;61.60;;;;;;5034333;28;20516;-76
2022/07/30 10:25:08;;;;;;;3.05;0.57;;;25.70;62.00;;;;;;5034752;28;20034;-75
2022/07/30 10:27:34;;;;;;;5.20;0.70;;;25.90;62.30;;;;;;5034009;28;20048;-76
2022/07/30 10:30:01;;;;;;;3.35;0.77;;;26.00;61.70;;;;;;5034609;28;20053;-76
2022/07/30 10:32:26;;;;;;;3.60;0.80;;;26.00;61.40;;;;;;5034235;28;20074;-76
2022/07/30 10:34:53;;;;;;;2.70;0.82;;;26.00;59.60;;;;;;5034210;28;20021;-75
2022/07/30 10:37:21;;;;;;;2.65;0.77;;;25.90;60.10;;;;;;5034073;28;20033;-76
2022/07/30 10:40:21;;;;;;;4.18;0.65;;;25.80;62.60;;;;;;5034407;28;20045;-76
2022/07/30 10:42:46;;;;;;;2.60;0.60;;;25.90;60.20;;;;;;5025176;28;20385;-76
2022/07/30 10:45:33;;;;;;;3.00;0.65;;;26.00;59.00;;;;;;5034016;28;20021;-76
2022/07/30 10:48:01;;;;;;;1.35;0.43;;;26.20;57.70;;;;;;5034303;28;20038;-76
2022/07/30 10:50:28;;;;;;;4.25;0.52;;;26.20;56.40;;;;;;5033292;28;20030;-76
2022/07/30 10:53:01;;;;;;;1.95;0.50;;;26.30;56.10;;;;;;5033869;28;20033;-76
2022/07/30 10:55:34;;;;;;;1.88;0.47;;;26.30;56.00;;;;;;5033836;28;20036;-76
2022/07/30 10:58:04;;;;;;;2.38;0.50;;;26.40;55.70;;;;;;5033859;28;20033;-76
2022/07/30 11:00:34;;;;;;;3.33;0.57;;;26.40;56.50;;;;;;5034116;28;20025;-76
2022/07/30 11:03:15;;;;;;;2.47;0.45;;;26.40;56.70;;;;;;5033980;28;20026;-76
2022/07/30 11:05:41;;;;;;;3.63;0.50;;;26.60;57.70;;;;;;5033457;28;20025;-76
2022/07/30 11:08:36;;;;;;;2.95;0.50;;;26.70;56.30;;;;;;5033453;28;20517;-76
2022/07/30 11:11:22;;;;;;;3.53;0.35;;;26.80;55.50;;;;;;5033742;28;20033;-76
2022/07/30 11:13:50;;;;;;;1.42;0.50;;;26.80;56.50;;;;;;5032868;28;20051;-76
2022/07/30 11:16:16;;;;;;;2.55;0.50;;;26.80;56.10;;;;;;5033487;28;20383;-76
2022/07/30 11:19:16;;;;;;;3.50;0.57;;;26.90;56.00;;;;;;5033659;28;20037;-76
2022/07/30 11:21:43;;;;;;;2.78;0.50;;;26.90;56.10;;;;;;5029854;28;20033;-76
2022/07/30 11:24:45;;;;;;;3.72;0.70;;;27.00;56.30;;;;;;5033278;28;20033;-76
2022/07/30 11:27:47;;;;;;;3.65;0.50;;;27.00;56.00;;;;;;5032952;28;20534;-76
2022/07/30 11:30:15;;;;;;;2.83;0.50;;;27.00;55.90;;;;;;5033284;28;20060;-76
2022/07/30 11:32:42;;;;;;;2.53;0.70;;;26.90;56.00;;;;;;5033583;28;20025;-76
2022/07/30 11:35:16;;;;;;;9.60;1.02;;;27.00;56.40;;;;;;5033178;28;20041;-76
2022/07/30 11:37:54;;;;;;;3.90;0.60;;;27.00;55.90;;;;;;5033477;28;20109;-76
2022/07/30 11:40:19;;;;;;;2.40;0.60;;;27.00;56.10;;;;;;5033068;28;20026;-76
2022/07/30 11:42:45;;;;;;;3.33;0.57;;;26.90;55.90;;;;;;5032844;28;20029;-76
2022/07/30 11:45:17;;;;;;;2.63;0.40;;;26.80;55.80;;;;;;5032987;28;20453;-76
2022/07/30 11:47:48;;;;;;;3.17;0.73;;;26.80;56.50;;;;;;5033231;28;20037;-76
2022/07/30 11:50:23;;;;;;;1.45;0.50;;;26.60;56.70;;;;;;5033278;28;20025;-76
2022/07/30 11:52:53;;;;;;;4.15;0.70;;;26.70;57.40;;;;;;5032963;28;20496;-76
2022/07/30 11:55:23;;;;;;;3.40;0.85;;;26.70;57.60;;;;;;5032758;28;20432;-76
2022/07/30 11:57:48;;;;;;;6.63;0.70;;;26.80;58.50;;;;;;5032681;28;20112;-76
2022/07/30 12:00:17;;;;;;;4.72;0.90;;;26.90;58.70;;;;;;5032879;28;20116;-76
2022/07/30 12:02:43;;;;;;;4.88;0.50;;;26.90;57.80;;;;;;5037405;28;20414;-76
2022/07/30 12:05:09;;;;;;;3.88;1.10;;;27.00;58.40;;;;;;5037090;28;20435;-76
2022/07/30 12:07:34;;;;;;;6.35;0.70;;;27.20;58.00;;;;;;5036888;28;20029;-76
2022/07/30 12:10:19;;;;;;;3.03;0.75;;;27.30;57.70;;;;;;5036820;28;20028;-76
2022/07/30 12:12:45;;;;;;;4.95;0.98;;;27.20;56.90;;;;;;5037106;28;20049;-76
2022/07/30 12:15:31;;;;;;;6.38;1.13;;;27.10;57.70;;;;;;5037103;28;20018;-76
2022/07/30 12:17:57;;;;;;;3.90;0.80;;;27.20;57.50;;;;;;5036879;28;20101;-76
2022/07/30 12:20:22;;;;;;;4.10;0.85;;;27.20;57.20;;;;;;5036991;28;20026;-76
2022/07/30 12:22:48;;;;;;;4.43;1.02;;;27.30;57.90;;;;;;5036315;28;20042;-76
2022/07/30 12:25:14;;;;;;;5.80;0.80;;;27.50;58.00;;;;;;5036678;28;20055;-76
2022/07/30 12:27:44;;;;;;;3.72;1.00;;;27.60;58.00;;;;;;5036801;28;20033;-76
2022/07/30 12:30:10;;;;;;;3.92;0.88;;;27.80;58.20;;;;;;5036543;28;20025;-76
2022/07/30 12:32:36;;;;;;;3.55;1.38;;;27.80;57.50;;;;;;5036414;28;20026;-76
2022/07/30 12:35:02;;;;;;;2.72;0.98;;;27.90;56.60;;;;;;5036421;28;20037;-76
2022/07/30 12:37:28;;;;;;;4.15;0.90;;;27.90;56.60;;;;;;5036331;28;20033;-76
2022/07/30 12:40:12;;;;;;;6.38;1.10;;;27.80;56.90;;;;;;5036690;28;20027;-76
2022/07/30 12:42:50;;;;;;;4.65;0.77;;;27.70;57.10;;;;;;5036478;28;20381;-76
2022/07/30 12:45:34;;;;;;;2.30;0.43;;;27.70;56.80;;;;;;5036675;28;20022;-76
2022/07/30 12:48:00;;;;;;;3.67;0.55;;;27.70;56.00;;;;;;5036779;28;20029;-76
2022/07/30 12:50:27;;;;;;;3.83;0.52;;;27.70;55.60;;;;;;5036563;28;20032;-76